createdAt,value
2019-04-23T00:00:56.749Z,56.82
2019-04-23T00:03:27.168Z,56.73
2019-04-23T00:08:39.586Z,56.78
2019-04-23T00:11:15.652Z,56.90
2019-04-23T00:13:45.498Z,56.97
2019-04-23T00:18:47.893Z,56.89
2019-04-23T00:21:20.686Z,56.90
2019-04-23T00:24:01.772Z,56.87
2019-04-23T00:26:36.635Z,57.01
2019-04-23T00:29:11.902Z,57.02
2019-04-23T00:31:40.829Z,57.01
2019-04-23T00:34:09.295Z,56.91
2019-04-23T00:36:44.285Z,56.92
2019-04-23T00:39:15.256Z,56.83
2019-04-23T00:41:50.877Z,56.84
2019-04-23T00:44:25.030Z,56.74
2019-04-23T00:46:55.720Z,56.66
2019-04-23T00:49:32.691Z,56.55
2019-04-23T00:52:07.520Z,56.56
2019-04-23T00:54:39.198Z,56.59
2019-04-23T00:57:21.796Z,56.69
2019-04-23T00:59:57.320Z,56.75
2019-04-23T01:02:18.322Z,56.64
2019-04-23T01:05:01.614Z,56.73
2019-04-23T01:07:29.583Z,56.77
2019-04-23T01:10:08.311Z,56.71
2019-04-23T01:12:38.263Z,56.71
2019-04-23T01:15:15.721Z,56.73
2019-04-23T01:17:49.123Z,56.87
2019-04-23T01:20:14.826Z,56.73
2019-04-23T01:22:33.489Z,56.71
2019-04-23T01:25:22.995Z,56.77
2019-04-23T01:28:23.153Z,56.78
2019-04-23T01:30:57.424Z,56.73
2019-04-23T01:33:34.079Z,56.60
2019-04-23T01:36:23.340Z,56.55
2019-04-23T01:38:41.845Z,56.44
2019-04-23T01:41:07.781Z,56.44
2019-04-23T01:43:41.254Z,56.50
2019-04-23T01:46:12.890Z,56.45
2019-04-23T01:48:52.141Z,56.44
2019-04-23T01:51:31.102Z,56.37
2019-04-23T01:53:57.146Z,56.40
2019-04-23T01:56:31.565Z,56.44
2019-04-23T01:59:06.114Z,56.36
2019-04-23T02:01:41.029Z,56.37
2019-04-23T02:04:16.987Z,56.38
2019-04-23T02:06:45.853Z,56.41
2019-04-23T02:09:16.701Z,56.24
2019-04-23T02:11:55.162Z,56.40
2019-04-23T02:14:28.097Z,56.33
2019-04-23T02:17:08.048Z,56.24
2019-04-23T02:19:42.360Z,56.17
2019-04-23T02:22:33.279Z,56.35
2019-04-23T02:25:01.922Z,56.33
2019-04-23T02:27:38.870Z,56.28
2019-04-23T02:30:26.649Z,56.33
2019-04-23T02:35:32.745Z,56.38
2019-04-23T02:38:03.459Z,56.27
2019-04-23T02:40:45.349Z,56.29
2019-04-23T02:43:08.459Z,56.42
2019-04-23T02:45:39.251Z,56.48
2019-04-23T02:53:30.704Z,56.50
2019-04-23T03:03:46.341Z,56.91
2019-04-23T03:06:10.184Z,57.06
2019-04-23T03:08:45.653Z,57.01
2019-04-23T03:11:15.518Z,57.11
2019-04-23T03:14:00.348Z,57.55
2019-04-23T03:21:52.244Z,57.57
2019-04-23T03:24:31.135Z,57.44
2019-04-23T03:27:09.804Z,57.53
2019-04-23T03:42:24.050Z,57.69
2019-04-23T03:45:00.684Z,57.85
2019-04-23T03:55:11.921Z,57.80
2019-04-23T03:57:54.113Z,57.76
2019-04-23T04:03:02.122Z,57.77
2019-04-23T04:05:31.162Z,57.56
2019-04-23T04:10:35.685Z,57.54
2019-04-23T04:13:22.793Z,57.59
2019-04-23T04:20:53.737Z,57.57
2019-04-23T04:28:28.949Z,57.29
2019-04-23T04:30:53.797Z,57.44
2019-04-23T04:33:55.445Z,57.45
2019-04-23T04:36:14.077Z,57.23
2019-04-23T04:38:54.432Z,57.39
2019-04-23T04:41:14.273Z,57.27
2019-04-23T04:44:17.572Z,57.26
2019-04-23T04:46:35.094Z,57.38
2019-04-23T04:48:58.789Z,57.20
2019-04-23T04:51:37.667Z,57.12
2019-04-23T04:54:09.612Z,57.14
2019-04-23T04:56:37.978Z,57.13
2019-04-23T04:59:11.850Z,56.82
2019-04-23T05:01:39.586Z,56.94
2019-04-23T05:04:23.406Z,56.85
2019-04-23T05:07:02.193Z,56.89
2019-04-23T05:09:29.309Z,56.64
2019-04-23T05:12:01.733Z,56.70
2019-04-23T05:14:33.419Z,56.65
2019-04-23T05:17:13.512Z,56.72
2019-04-23T05:19:42.627Z,56.52
2019-04-23T05:22:16.117Z,56.07
2019-04-23T05:27:17.552Z,55.96
2019-04-23T05:29:55.948Z,55.79
2019-04-23T05:32:26.204Z,55.85
2019-04-23T05:34:57.632Z,55.59
2019-04-23T05:37:42.247Z,55.34
2019-04-23T05:40:14.522Z,55.01
2019-04-23T05:42:43.062Z,55.07
2019-04-23T05:45:29.787Z,55.11
2019-04-23T05:47:53.436Z,54.80
2019-04-23T05:50:29.169Z,54.54
2019-04-23T05:52:59.051Z,54.29
2019-04-23T05:55:32.901Z,54.12
2019-04-23T05:58:05.183Z,54.26
2019-04-23T06:00:51.146Z,53.85
2019-04-23T06:03:16.012Z,54.12
2019-04-23T06:05:58.256Z,53.88
2019-04-23T06:08:25.279Z,53.93
2019-04-23T06:11:01.993Z,53.37
2019-04-23T06:13:36.302Z,53.67
2019-04-23T06:16:05.056Z,53.52
2019-04-23T06:18:40.721Z,53.24
2019-04-23T06:21:10.087Z,53.09
2019-04-23T06:23:49.605Z,52.79
2019-04-23T06:28:56.126Z,53.26
2019-04-23T06:34:03.890Z,53.08
2019-04-23T06:36:32.675Z,53.04
2019-04-23T06:39:10.283Z,52.98
2019-04-23T06:41:46.563Z,52.85
2019-04-23T06:44:19.556Z,52.69
2019-04-23T06:49:28.445Z,52.43
2019-04-23T06:54:37.868Z,52.14
2019-04-23T06:59:35.751Z,52.63
2019-04-23T07:02:20.663Z,52.77
2019-04-23T07:09:56.213Z,52.40
2019-04-23T07:15:30.664Z,52.55
2019-04-23T07:17:30.749Z,52.17
2019-04-23T07:20:06.838Z,52.70
2019-04-23T07:22:43.240Z,52.47
2019-04-23T07:25:18.939Z,52.32
2019-04-23T07:27:49.003Z,52.35
2019-04-23T07:30:23.714Z,52.19
2019-04-23T07:32:56.633Z,52.29
2019-04-23T07:35:31.647Z,52.45
2019-04-23T07:38:32.748Z,52.62
2019-04-23T07:40:54.149Z,52.37
2019-04-23T07:43:33.543Z,52.35
2019-04-23T07:46:16.868Z,52.06
2019-04-23T07:48:43.967Z,52.00
2019-04-23T07:51:19.826Z,52.01
2019-04-23T07:53:52.113Z,51.98
2019-04-23T07:56:21.388Z,52.13
2019-04-23T07:58:57.038Z,52.00
2019-04-23T08:01:32.019Z,51.43
2019-04-23T08:04:04.565Z,51.38
2019-04-23T08:06:41.295Z,51.44
2019-04-23T08:09:22.366Z,51.52
2019-04-23T08:12:02.657Z,51.60
2019-04-23T08:14:13.572Z,51.40
2019-04-23T08:16:53.035Z,51.18
2019-04-23T08:19:38.518Z,51.07
2019-04-23T08:22:12.785Z,51.03
2019-04-23T08:24:52.233Z,51.05
2019-04-23T08:27:24.081Z,50.55
2019-04-23T08:29:58.475Z,50.38
2019-04-23T08:32:38.557Z,49.62
2019-04-23T08:37:54.314Z,49.91
2019-04-23T08:40:16.090Z,49.90
2019-04-23T08:45:28.031Z,49.42
2019-04-23T08:50:47.839Z,49.30
2019-04-23T08:53:30.877Z,48.59
2019-04-23T09:01:05.868Z,48.47
2019-04-23T09:03:34.416Z,47.72
2019-04-23T09:06:14.051Z,47.87
2019-04-23T09:11:30.105Z,47.48
2019-04-23T09:16:25.412Z,47.02
2019-04-23T09:19:04.615Z,46.74
2019-04-23T09:21:30.263Z,47.16
2019-04-23T09:24:03.721Z,47.05
2019-04-23T09:26:40.605Z,46.74
2019-04-23T09:29:17.231Z,46.60
2019-04-23T09:34:43.303Z,46.51
2019-04-23T09:37:28.346Z,46.43
2019-04-23T09:39:59.116Z,46.02
2019-04-23T09:42:54.566Z,45.89
2019-04-23T09:45:29.649Z,45.96
2019-04-23T09:48:01.868Z,46.04
2019-04-23T09:53:24.124Z,45.72
2019-04-23T09:55:51.456Z,45.76
2019-04-23T10:00:56.181Z,45.11
2019-04-23T10:03:23.847Z,45.60
2019-04-23T10:05:50.565Z,45.79
2019-04-23T10:08:21.148Z,45.37
2019-04-23T10:10:47.251Z,45.92
2019-04-23T10:13:19.941Z,45.61
2019-04-23T10:15:53.590Z,45.79
2019-04-23T10:18:26.845Z,45.09
2019-04-23T10:20:59.330Z,44.70
2019-04-23T10:23:31.574Z,44.60
2019-04-23T10:26:03.937Z,44.27
2019-04-23T10:28:38.127Z,44.56
2019-04-23T10:31:10.220Z,44.29
2019-04-23T10:33:42.228Z,44.20
2019-04-23T10:36:19.923Z,44.39
2019-04-23T10:38:59.774Z,44.52
2019-04-23T10:41:24.224Z,44.68
2019-04-23T10:43:58.681Z,44.63
2019-04-23T10:46:53.751Z,44.54
2019-04-23T10:49:47.695Z,44.66
2019-04-23T10:52:24.794Z,44.76
2019-04-23T10:57:17.314Z,44.73
2019-04-23T11:00:01.538Z,43.97
2019-04-23T11:05:26.094Z,43.76
2019-04-23T11:10:08.657Z,43.69
2019-04-23T11:15:36.217Z,42.83
2019-04-23T11:17:47.720Z,42.87
2019-04-23T11:20:45.413Z,42.72
2019-04-23T11:23:17.523Z,42.85
2019-04-23T11:25:36.088Z,42.78
2019-04-23T11:28:13.585Z,43.65
2019-04-23T11:30:51.503Z,43.31
2019-04-23T11:38:48.649Z,42.62
2019-04-23T11:41:17.293Z,41.98
2019-04-23T11:43:38.066Z,41.84
2019-04-23T11:46:32.544Z,41.36
2019-04-23T11:49:10.322Z,41.61
2019-04-23T11:54:01.568Z,40.49
2019-04-23T11:57:05.481Z,40.51
2019-04-23T11:59:06.916Z,39.99
2019-04-23T12:02:07.483Z,39.53
2019-04-23T12:04:38.572Z,39.71
2019-04-23T12:07:11.042Z,39.59
2019-04-23T12:09:58.190Z,39.15
2019-04-23T12:12:25.075Z,38.74
2019-04-23T12:15:03.642Z,38.48
2019-04-23T12:17:43.809Z,38.12
2019-04-23T12:20:12.279Z,38.10
2019-04-23T12:22:54.014Z,38.18
2019-04-23T12:27:42.040Z,37.31
2019-04-23T12:30:36.546Z,37.40
2019-04-23T12:35:43.743Z,36.32
2019-04-23T12:40:44.230Z,35.24
2019-04-23T12:45:47.337Z,35.51
2019-04-23T12:51:21.309Z,35.05
2019-04-23T12:53:39.837Z,34.97
2019-04-23T12:56:10.608Z,34.93
2019-04-23T12:58:33.927Z,35.14
2019-04-23T13:01:14.124Z,34.58
2019-04-23T13:03:45.612Z,34.65
2019-04-23T13:06:20.640Z,34.51
2019-04-23T13:08:56.917Z,34.54
2019-04-23T13:11:34.870Z,34.20
2019-04-23T13:19:16.811Z,34.82
2019-04-23T13:22:04.369Z,34.85
2019-04-23T13:24:36.058Z,34.98
2019-04-23T13:27:10.668Z,35.00
2019-04-23T13:32:24.280Z,35.05
2019-04-23T13:34:58.835Z,35.01
2019-04-23T13:37:31.537Z,35.08
2019-04-23T13:40:16.985Z,35.09
2019-04-23T13:42:42.771Z,34.87
2019-04-23T13:45:18.388Z,34.55
2019-04-23T13:47:46.928Z,34.59
2019-04-23T13:50:17.544Z,34.25
2019-04-23T13:55:34.649Z,33.70
2019-04-23T14:00:36.907Z,33.15
2019-04-23T14:02:54.745Z,33.13
2019-04-23T14:05:41.274Z,32.70
2019-04-23T14:10:46.521Z,30.80
2019-04-23T14:13:37.324Z,30.58
2019-04-23T14:16:11.749Z,30.36
2019-04-23T14:21:08.701Z,29.18
2019-04-23T14:23:54.095Z,28.48
2019-04-23T14:26:18.687Z,28.23
2019-04-23T14:28:43.627Z,27.70
2019-04-23T14:34:03.558Z,26.66
2019-04-23T14:39:04.247Z,25.96
2019-04-23T14:41:26.668Z,25.94
2019-04-23T14:44:12.955Z,25.37
2019-04-23T14:46:55.839Z,25.70
2019-04-23T14:49:54.042Z,24.95
2019-04-23T14:52:18.884Z,24.72
2019-04-23T14:55:25.286Z,24.55
2019-04-23T14:57:24.818Z,23.99
2019-04-23T14:59:57.390Z,23.87
2019-04-23T15:05:04.177Z,23.14
2019-04-23T15:07:38.020Z,23.19
2019-04-23T15:10:18.577Z,23.57
2019-04-23T15:12:47.845Z,23.09
2019-04-23T15:17:49.763Z,24.76
2019-04-23T15:20:32.486Z,24.52
2019-04-23T15:23:33.662Z,24.29
2019-04-23T15:26:15.744Z,24.91
2019-04-23T15:28:09.033Z,25.40
2019-04-23T15:30:57.089Z,25.94
